createdAt,value
2017-05-10T00:00:30.436Z,1004.79
2017-05-10T00:01:31.121Z,1004.74
2017-05-10T00:02:31.740Z,1004.70
2017-05-10T00:03:32.356Z,1004.66
2017-05-10T00:04:32.971Z,1004.68
2017-05-10T00:05:33.561Z,1004.68
2017-05-10T00:06:34.168Z,1004.65
2017-05-10T00:07:34.774Z,1004.65
2017-05-10T00:08:35.377Z,1004.68
2017-05-10T00:09:35.985Z,1004.65
2017-05-10T00:10:36.593Z,1004.68
2017-05-10T00:11:37.203Z,1004.66
2017-05-10T00:12:37.807Z,1004.60
2017-05-10T00:13:38.419Z,1004.62
2017-05-10T00:14:39.024Z,1004.59
2017-05-10T00:15:39.616Z,1004.59
2017-05-10T00:16:40.264Z,1004.55
2017-05-10T00:17:40.869Z,1004.55
2017-05-10T00:18:41.472Z,1004.50
2017-05-10T00:19:42.078Z,1004.50
2017-05-10T00:20:42.667Z,1004.50
2017-05-10T00:21:43.314Z,1004.49
2017-05-10T00:22:43.918Z,1004.50
2017-05-10T00:23:44.523Z,1004.54
2017-05-10T00:24:45.131Z,1004.48
2017-05-10T00:25:45.745Z,1004.47
2017-05-10T00:26:46.398Z,1004.49
2017-05-10T00:27:47.005Z,1004.45
2017-05-10T00:28:47.607Z,1004.49
2017-05-10T00:29:48.220Z,1004.46
2017-05-10T00:30:48.820Z,1004.46
2017-05-10T00:31:49.429Z,1004.45
2017-05-10T00:32:50.037Z,1004.40
2017-05-10T00:33:50.649Z,1004.42
2017-05-10T00:34:51.253Z,1004.39
2017-05-10T00:35:51.854Z,1004.39
2017-05-10T00:36:52.509Z,1004.34
2017-05-10T00:37:53.104Z,1004.35
2017-05-10T00:38:53.709Z,1004.37
2017-05-10T00:39:54.319Z,1004.32
2017-05-10T00:40:54.910Z,1004.29
2017-05-10T00:41:55.514Z,1004.35
2017-05-10T00:42:56.118Z,1004.35
2017-05-10T00:43:56.713Z,1004.35
2017-05-10T00:44:57.318Z,1004.35
2017-05-10T00:45:57.920Z,1004.31
2017-05-10T00:46:58.525Z,1004.29
2017-05-10T00:47:59.119Z,1004.31
2017-05-10T00:48:59.733Z,1004.32
2017-05-10T00:50:00.318Z,1004.26
2017-05-10T00:51:00.925Z,1004.28
2017-05-10T00:52:01.531Z,1004.27
2017-05-10T00:53:02.136Z,1004.26
2017-05-10T00:54:02.738Z,1004.22
2017-05-10T00:55:03.346Z,1004.22
2017-05-10T00:56:03.951Z,1004.22
2017-05-10T00:57:04.594Z,1004.18
2017-05-10T00:58:05.193Z,1004.20
2017-05-10T00:59:05.803Z,1004.14
2017-05-10T01:00:06.406Z,1004.13
2017-05-10T01:01:06.997Z,1004.12
2017-05-10T01:02:07.594Z,1004.05
2017-05-10T01:03:08.201Z,1004.06
2017-05-10T01:04:08.807Z,1004.02
2017-05-10T01:05:09.411Z,1004.05
2017-05-10T01:06:10.013Z,1004.01
2017-05-10T01:07:10.667Z,1004.01
2017-05-10T01:08:11.271Z,1003.98
2017-05-10T01:09:11.870Z,1003.96
2017-05-10T01:10:12.470Z,1003.92
2017-05-10T01:11:13.078Z,1003.95
2017-05-10T01:12:13.689Z,1003.91
2017-05-10T01:13:14.293Z,1003.90
2017-05-10T01:14:14.892Z,1003.90
2017-05-10T01:15:15.499Z,1003.84
2017-05-10T01:16:16.102Z,1003.88
2017-05-10T01:17:16.754Z,1003.89
2017-05-10T01:18:17.356Z,1003.85
2017-05-10T01:19:17.951Z,1003.85
2017-05-10T01:20:18.556Z,1003.85
2017-05-10T01:21:19.158Z,1003.85
2017-05-10T01:22:19.757Z,1003.83
2017-05-10T01:23:20.363Z,1003.81
2017-05-10T01:24:20.966Z,1003.79
2017-05-10T01:25:21.560Z,1003.79
2017-05-10T01:26:22.162Z,1003.78
2017-05-10T01:27:22.766Z,1003.76
2017-05-10T01:28:23.377Z,1003.76
2017-05-10T01:29:23.977Z,1003.71
2017-05-10T01:30:24.578Z,1003.75
2017-05-10T01:31:25.172Z,1003.72
2017-05-10T01:32:25.828Z,1003.74
2017-05-10T01:33:26.437Z,1003.70
2017-05-10T01:34:27.047Z,1003.70
2017-05-10T01:35:27.647Z,1003.69
2017-05-10T01:36:28.245Z,1003.67
2017-05-10T01:37:28.856Z,1003.71
2017-05-10T01:38:29.462Z,1003.62
2017-05-10T01:39:30.066Z,1003.63
2017-05-10T01:40:30.657Z,1003.60
2017-05-10T01:41:31.260Z,1003.60
2017-05-10T01:42:31.936Z,1003.58
2017-05-10T01:43:32.512Z,1003.58
2017-05-10T01:44:33.104Z,1003.60
2017-05-10T01:45:33.701Z,1003.59
2017-05-10T01:46:34.309Z,1003.59
2017-05-10T01:47:34.903Z,1003.57
2017-05-10T01:48:35.512Z,1003.58
2017-05-10T01:49:36.120Z,1003.59
2017-05-10T01:50:36.712Z,1003.52
2017-05-10T01:51:37.303Z,1003.55
2017-05-10T01:52:37.906Z,1003.52
2017-05-10T01:53:38.516Z,1003.52
2017-05-10T01:54:39.103Z,1003.49
2017-05-10T01:55:39.705Z,1003.51
2017-05-10T01:56:40.300Z,1003.49
2017-05-10T01:57:40.904Z,1003.48
2017-05-10T01:58:41.507Z,1003.49
2017-05-10T01:59:42.103Z,1003.42
2017-05-10T02:00:42.690Z,1003.46
2017-05-10T02:01:43.292Z,1003.45
2017-05-10T02:02:43.895Z,1003.41
2017-05-10T02:03:44.502Z,1003.39
2017-05-10T02:04:45.104Z,1003.38
2017-05-10T02:05:45.711Z,1003.34
2017-05-10T02:06:46.301Z,1003.36
2017-05-10T02:07:46.903Z,1003.32
2017-05-10T02:08:47.502Z,1003.36
2017-05-10T02:09:48.106Z,1003.33
2017-05-10T02:10:48.704Z,1003.31
2017-05-10T02:11:49.311Z,1003.29
2017-05-10T02:12:49.924Z,1003.30
2017-05-10T02:13:50.532Z,1003.25
2017-05-10T02:14:51.138Z,1003.27
2017-05-10T02:15:51.743Z,1003.25
2017-05-10T02:16:52.344Z,1003.27
2017-05-10T02:17:52.941Z,1003.28
2017-05-10T02:18:53.547Z,1003.23
2017-05-10T02:19:54.145Z,1003.22
2017-05-10T02:20:54.751Z,1003.21
2017-05-10T02:21:55.355Z,1003.19
2017-05-10T02:22:55.959Z,1003.19
2017-05-10T02:23:56.552Z,1003.23
2017-05-10T02:24:57.158Z,1003.21
2017-05-10T02:25:57.761Z,1003.19
2017-05-10T02:26:58.364Z,1003.16
2017-05-10T02:27:58.953Z,1003.19
2017-05-10T02:28:59.566Z,1003.18
2017-05-10T02:30:00.162Z,1003.20
2017-05-10T02:31:00.768Z,1003.15
2017-05-10T02:32:01.409Z,1003.14
2017-05-10T02:33:02.010Z,1003.15
2017-05-10T02:34:02.617Z,1003.16
2017-05-10T02:35:03.206Z,1003.12
2017-05-10T02:36:03.800Z,1003.12
2017-05-10T02:37:04.390Z,1003.09
2017-05-10T02:38:04.999Z,1003.10
2017-05-10T02:39:05.605Z,1003.09
2017-05-10T02:40:06.192Z,1003.10
2017-05-10T02:41:06.786Z,1003.09
2017-05-10T02:42:07.465Z,1003.08
2017-05-10T02:43:08.016Z,1003.09
2017-05-10T02:44:08.619Z,1003.06
2017-05-10T02:45:09.227Z,1003.02
2017-05-10T02:46:09.834Z,1003.03
2017-05-10T02:47:10.591Z,1003.02
2017-05-10T02:48:11.186Z,1002.96
2017-05-10T02:49:11.816Z,1003.02
2017-05-10T02:50:12.461Z,1002.96
2017-05-10T02:51:13.080Z,1002.95
2017-05-10T02:52:13.742Z,1002.99
2017-05-10T02:53:14.379Z,1002.96
2017-05-10T02:54:15.182Z,1002.95
2017-05-10T02:55:15.956Z,1002.96
2017-05-10T02:56:16.562Z,1002.98
2017-05-10T02:57:17.202Z,1002.95
2017-05-10T02:58:17.792Z,1002.93
2017-05-10T02:59:18.427Z,1002.89
2017-05-10T03:00:19.008Z,1002.88
2017-05-10T03:01:19.617Z,1002.92
2017-05-10T03:02:20.272Z,1002.86
2017-05-10T03:03:20.877Z,1002.82
2017-05-10T03:04:21.476Z,1002.81
2017-05-10T03:05:22.067Z,1002.81
2017-05-10T03:06:22.658Z,1002.79
2017-05-10T03:07:23.268Z,1002.79
2017-05-10T03:08:23.856Z,1002.81
2017-05-10T03:09:24.446Z,1002.81
2017-05-10T03:10:25.039Z,1002.78
2017-05-10T03:11:25.644Z,1002.80
2017-05-10T03:12:26.243Z,1002.79
2017-05-10T03:13:26.853Z,1002.81
2017-05-10T03:14:27.450Z,1002.80
2017-05-10T03:15:28.040Z,1002.78
2017-05-10T03:16:28.637Z,1002.77
2017-05-10T03:17:29.246Z,1002.74
2017-05-10T03:18:29.846Z,1002.74
2017-05-10T03:19:30.453Z,1002.76
2017-05-10T03:20:31.055Z,1002.74
2017-05-10T03:21:31.659Z,1002.70
2017-05-10T03:22:32.262Z,1002.70
2017-05-10T03:23:32.859Z,1002.73
2017-05-10T03:24:33.451Z,1002.69
2017-05-10T03:25:34.044Z,1002.70
2017-05-10T03:26:34.641Z,1002.65
2017-05-10T03:27:35.284Z,1002.62
2017-05-10T03:28:35.875Z,1002.61
2017-05-10T03:29:36.482Z,1002.61
2017-05-10T03:30:37.085Z,1002.61
2017-05-10T03:31:37.677Z,1002.59
2017-05-10T03:32:38.286Z,1002.62
2017-05-10T03:33:38.884Z,1002.60
2017-05-10T03:34:39.476Z,1002.59
2017-05-10T03:35:40.072Z,1002.56
2017-05-10T03:36:40.676Z,1002.58
2017-05-10T03:37:41.277Z,1002.59
2017-05-10T03:38:41.884Z,1002.55
2017-05-10T03:39:42.469Z,1002.54
2017-05-10T03:40:43.065Z,1002.53
2017-05-10T03:41:43.657Z,1002.55
2017-05-10T03:42:44.267Z,1002.53
2017-05-10T03:43:44.874Z,1002.52
2017-05-10T03:44:45.479Z,1002.57
2017-05-10T03:45:46.080Z,1002.53
2017-05-10T03:46:46.685Z,1002.54
2017-05-10T03:47:47.277Z,1002.56
2017-05-10T03:48:47.873Z,1002.55
2017-05-10T03:49:48.478Z,1002.54
2017-05-10T03:50:49.073Z,1002.56
2017-05-10T03:51:49.728Z,1002.57
2017-05-10T03:52:50.337Z,1002.60
2017-05-10T03:53:50.947Z,1002.56
2017-05-10T03:54:51.556Z,1002.59
2017-05-10T03:55:52.150Z,1002.56
2017-05-10T03:56:52.796Z,1002.55
2017-05-10T03:57:53.396Z,1002.55
2017-05-10T03:58:54.004Z,1002.57
2017-05-10T03:59:54.597Z,1002.53
2017-05-10T04:00:55.190Z,1002.50
2017-05-10T04:01:55.802Z,1002.47
2017-05-10T04:02:56.402Z,1002.50
2017-05-10T04:03:57.013Z,1002.49
2017-05-10T04:04:57.621Z,1002.51
2017-05-10T04:05:58.234Z,1002.51
2017-05-10T04:06:58.839Z,1002.47
2017-05-10T04:07:59.447Z,1002.46
2017-05-10T04:09:00.058Z,1002.48
2017-05-10T04:10:00.666Z,1002.48
2017-05-10T04:11:01.270Z,1002.47
2017-05-10T04:12:01.919Z,1002.44
2017-05-10T04:13:02.528Z,1002.47
2017-05-10T04:14:03.134Z,1002.45
2017-05-10T04:15:03.733Z,1002.46
2017-05-10T04:16:04.325Z,1002.45
2017-05-10T04:17:04.968Z,1002.47
2017-05-10T04:18:05.574Z,1002.50
2017-05-10T04:19:06.186Z,1002.51
2017-05-10T04:20:06.781Z,1002.50
2017-05-10T04:21:07.395Z,1002.47
2017-05-10T04:22:07.999Z,1002.48
2017-05-10T04:23:08.595Z,1002.48
2017-05-10T04:24:09.193Z,1002.49
2017-05-10T04:25:09.799Z,1002.50
2017-05-10T04:26:10.407Z,1002.47
2017-05-10T04:27:11.017Z,1002.48
2017-05-10T04:28:11.626Z,1002.51
2017-05-10T04:29:12.220Z,1002.49
2017-05-10T04:30:12.826Z,1002.49
2017-05-10T04:31:13.482Z,1002.45
2017-05-10T04:32:14.086Z,1002.45
2017-05-10T04:33:14.692Z,1002.44
2017-05-10T04:34:15.291Z,1002.44
2017-05-10T04:35:15.908Z,1002.47
2017-05-10T04:36:16.523Z,1002.45
2017-05-10T04:37:17.139Z,1002.50
2017-05-10T04:38:17.751Z,1002.50
2017-05-10T04:39:18.364Z,1002.57
2017-05-10T04:40:18.974Z,1002.50
2017-05-10T04:41:19.595Z,1002.51
2017-05-10T04:42:20.206Z,1002.52
2017-05-10T04:43:20.804Z,1002.53
2017-05-10T04:44:21.421Z,1002.59
2017-05-10T04:45:22.020Z,1002.54
2017-05-10T04:46:22.624Z,1002.53
2017-05-10T04:47:23.235Z,1002.55
2017-05-10T04:48:23.840Z,1002.53
2017-05-10T04:49:24.450Z,1002.51
2017-05-10T04:50:25.064Z,1002.45
2017-05-10T04:51:25.665Z,1002.47
2017-05-10T04:52:26.280Z,1002.44
2017-05-10T04:53:26.879Z,1002.44
2017-05-10T04:54:27.496Z,1002.40
2017-05-10T04:55:28.113Z,1002.42
2017-05-10T04:56:28.740Z,1002.46
2017-05-10T04:57:29.366Z,1002.41
2017-05-10T04:58:29.969Z,1002.46
2017-05-10T04:59:30.584Z,1002.43
2017-05-10T05:00:31.195Z,1002.42
2017-05-10T05:01:31.796Z,1002.42
2017-05-10T05:02:32.405Z,1002.39
2017-05-10T05:03:33.031Z,1002.39
2017-05-10T05:04:33.648Z,1002.38
2017-05-10T05:05:34.307Z,1002.39
2017-05-10T05:06:35.021Z,1002.42
2017-05-10T05:07:35.636Z,1002.41
2017-05-10T05:08:36.261Z,1002.44
2017-05-10T05:09:36.925Z,1002.45
2017-05-10T05:10:37.580Z,1002.41
2017-05-10T05:11:38.250Z,1002.45
2017-05-10T05:12:38.874Z,1002.39
2017-05-10T05:13:39.493Z,1002.40
2017-05-10T05:14:40.099Z,1002.36
2017-05-10T05:15:40.705Z,1002.40
2017-05-10T05:16:41.526Z,1002.35
2017-05-10T05:17:42.146Z,1002.36
2017-05-10T05:18:42.776Z,1002.35
2017-05-10T05:19:43.484Z,1002.35
2017-05-10T05:20:44.028Z,1002.35
2017-05-10T05:21:44.668Z,1002.36
2017-05-10T05:22:45.287Z,1002.39
2017-05-10T05:23:45.912Z,1002.32
2017-05-10T05:24:46.527Z,1002.35
2017-05-10T05:25:47.177Z,1002.33
2017-05-10T05:26:47.841Z,1002.39
2017-05-10T05:27:48.450Z,1002.40
2017-05-10T05:28:49.078Z,1002.31
2017-05-10T05:29:49.690Z,1002.31
2017-05-10T05:30:50.307Z,1002.29
2017-05-10T05:31:50.973Z,1002.32
2017-05-10T05:32:51.612Z,1002.36
2017-05-10T05:33:52.248Z,1002.36
2017-05-10T05:34:52.861Z,1002.36
2017-05-10T05:35:53.495Z,1002.35
2017-05-10T05:36:54.105Z,1002.36
2017-05-10T05:37:54.723Z,1002.35
2017-05-10T05:38:55.345Z,1002.31
2017-05-10T05:39:55.969Z,1002.32
2017-05-10T05:40:56.580Z,1002.35
2017-05-10T05:41:57.242Z,1002.30
2017-05-10T05:42:57.863Z,1002.34
2017-05-10T05:43:58.482Z,1002.29
2017-05-10T05:44:59.086Z,1002.32
2017-05-10T05:45:59.706Z,1002.29
2017-05-10T05:47:00.328Z,1002.31
2017-05-10T05:48:00.973Z,1002.28
2017-05-10T05:49:01.635Z,1002.29
2017-05-10T05:50:02.247Z,1002.28
2017-05-10T05:51:02.875Z,1002.33
2017-05-10T05:52:03.494Z,1002.31
2017-05-10T05:53:04.112Z,1002.27
2017-05-10T05:54:04.736Z,1002.28
2017-05-10T05:55:05.357Z,1002.29
2017-05-10T05:56:05.969Z,1002.24
2017-05-10T05:57:06.636Z,1002.25
2017-05-10T05:58:07.258Z,1002.19
2017-05-10T05:59:07.872Z,1002.21
2017-05-10T06:00:08.484Z,1002.15
2017-05-10T06:01:09.110Z,1002.17
2017-05-10T06:02:09.746Z,1002.19
2017-05-10T06:03:10.373Z,1002.19
2017-05-10T06:04:10.994Z,1002.16
2017-05-10T06:05:11.618Z,1002.18
2017-05-10T06:06:12.250Z,1002.21
2017-05-10T06:07:12.925Z,1002.20
2017-05-10T06:08:13.552Z,1002.18
2017-05-10T06:09:14.190Z,1002.23
2017-05-10T06:10:14.821Z,1002.18
2017-05-10T06:11:15.459Z,1002.17
2017-05-10T06:12:16.222Z,1002.20
2017-05-10T06:13:17.727Z,1002.20
2017-05-10T06:14:18.354Z,1002.21
2017-05-10T06:15:18.969Z,1002.19
2017-05-10T06:16:19.598Z,1002.19
2017-05-10T06:17:20.227Z,1002.14
2017-05-10T06:18:20.865Z,1002.14
2017-05-10T06:19:21.488Z,1002.14
2017-05-10T06:20:22.113Z,1002.14
2017-05-10T06:21:22.750Z,1002.18
2017-05-10T06:22:23.372Z,1002.13
2017-05-10T06:23:24.005Z,1002.10
2017-05-10T06:24:24.635Z,1002.12
2017-05-10T06:25:25.263Z,1002.13
2017-05-10T06:26:25.948Z,1002.14
2017-05-10T06:27:26.580Z,1002.12
2017-05-10T06:28:27.228Z,1002.11
2017-05-10T06:29:27.858Z,1002.09
2017-05-10T06:30:28.496Z,1002.08
2017-05-10T06:31:29.115Z,1002.11
2017-05-10T06:32:29.737Z,1002.10
2017-05-10T06:33:30.376Z,1002.13
2017-05-10T06:34:31.010Z,1002.08
2017-05-10T06:35:31.626Z,1002.11
2017-05-10T06:36:32.257Z,1002.05
2017-05-10T06:37:32.896Z,1002.06
2017-05-10T06:38:33.653Z,1002.10
2017-05-10T06:39:34.265Z,1002.07
2017-05-10T06:40:34.895Z,1002.06
2017-05-10T06:41:35.512Z,1002.04
2017-05-10T06:42:36.190Z,1002.06
2017-05-10T06:43:36.809Z,1002.06
2017-05-10T06:44:37.446Z,1002.06
2017-05-10T06:45:38.100Z,1002.05
2017-05-10T06:46:38.793Z,1002.02
2017-05-10T06:47:39.414Z,1002.02
2017-05-10T06:48:40.027Z,1002.03
2017-05-10T06:49:40.664Z,1002.02
2017-05-10T06:50:41.292Z,1002.03
2017-05-10T06:51:41.922Z,1002.00
2017-05-10T06:52:42.550Z,1001.96
2017-05-10T06:53:43.191Z,1001.96
2017-05-10T06:54:43.833Z,1001.95
2017-05-10T06:55:44.485Z,1001.94
2017-05-10T06:56:45.114Z,1001.95
2017-05-10T06:57:45.752Z,1001.97
2017-05-10T06:58:46.446Z,1001.96
2017-05-10T06:59:47.153Z,1001.95
2017-05-10T07:00:47.993Z,1001.97
2017-05-10T07:01:48.607Z,1001.93
2017-05-10T07:02:49.231Z,1001.96
2017-05-10T07:03:49.843Z,1001.93
2017-05-10T07:04:50.471Z,1001.96
2017-05-10T07:05:51.098Z,1001.93
2017-05-10T07:06:51.732Z,1001.94
2017-05-10T07:07:52.367Z,1001.94
2017-05-10T07:08:52.999Z,1001.93
2017-05-10T07:09:53.673Z,1001.92
2017-05-10T07:10:54.306Z,1001.91
2017-05-10T07:11:54.940Z,1001.91
2017-05-10T07:12:55.559Z,1001.89
2017-05-10T07:13:56.196Z,1001.88
2017-05-10T07:14:56.819Z,1001.87
2017-05-10T07:15:57.459Z,1001.87
2017-05-10T07:16:58.087Z,1001.84
2017-05-10T07:17:58.746Z,1001.82
2017-05-10T07:18:59.378Z,1001.82
2017-05-10T07:20:00.269Z,1001.83
2017-05-10T07:21:00.921Z,1001.81
2017-05-10T07:22:01.554Z,1001.79
2017-05-10T07:23:02.187Z,1001.80
2017-05-10T07:24:02.819Z,1001.83
2017-05-10T07:25:03.451Z,1001.81
2017-05-10T07:26:04.084Z,1001.83
2017-05-10T07:27:04.714Z,1001.80
2017-05-10T07:28:05.343Z,1001.82
2017-05-10T07:29:05.967Z,1001.83
2017-05-10T07:30:06.603Z,1001.76
2017-05-10T07:31:07.236Z,1001.79
2017-05-10T07:32:07.866Z,1001.75
2017-05-10T07:33:08.486Z,1001.78
2017-05-10T07:34:09.111Z,1001.78
2017-05-10T07:35:09.886Z,1001.81
2017-05-10T07:36:10.520Z,1001.77
2017-05-10T07:37:11.151Z,1001.75
2017-05-10T07:38:11.789Z,1001.79
2017-05-10T07:39:12.422Z,1001.76
2017-05-10T07:40:13.051Z,1001.81
2017-05-10T07:41:13.688Z,1001.83
2017-05-10T07:42:14.320Z,1001.77
2017-05-10T07:43:14.937Z,1001.78
2017-05-10T07:44:15.563Z,1001.79
2017-05-10T07:45:16.192Z,1001.76
2017-05-10T07:46:16.869Z,1001.75
2017-05-10T07:47:17.494Z,1001.75
2017-05-10T07:48:18.126Z,1001.76
2017-05-10T07:49:18.761Z,1001.76
2017-05-10T07:50:19.388Z,1001.75
2017-05-10T07:51:20.026Z,1001.75
2017-05-10T07:52:20.653Z,1001.75
2017-05-10T07:53:21.285Z,1001.73
2017-05-10T07:54:21.925Z,1001.72
2017-05-10T07:55:22.559Z,1001.72
2017-05-10T07:56:23.242Z,1001.71
2017-05-10T07:57:23.880Z,1001.71
2017-05-10T07:58:24.511Z,1001.72
2017-05-10T07:59:25.136Z,1001.72
2017-05-10T08:00:25.773Z,1001.69
2017-05-10T08:01:26.652Z,1001.69
2017-05-10T08:02:27.279Z,1001.65
2017-05-10T08:03:28.001Z,1001.64
2017-05-10T08:04:28.652Z,1001.66
2017-05-10T08:05:29.265Z,1001.64
2017-05-10T08:06:29.966Z,1001.66
2017-05-10T08:07:30.588Z,1001.66
2017-05-10T08:08:31.230Z,1001.60
2017-05-10T08:09:31.852Z,1001.57
2017-05-10T08:10:32.490Z,1001.59
2017-05-10T08:11:33.121Z,1001.61
2017-05-10T08:12:33.758Z,1001.59
2017-05-10T08:13:34.378Z,1001.59
2017-05-10T08:14:35.000Z,1001.53
2017-05-10T08:15:35.633Z,1001.49
2017-05-10T08:16:36.265Z,1001.52
2017-05-10T08:17:36.890Z,1001.51
2017-05-10T08:18:37.506Z,1001.46
2017-05-10T08:19:38.140Z,1001.46
2017-05-10T08:20:38.774Z,1001.45
2017-05-10T08:21:39.471Z,1001.43
2017-05-10T08:22:41.065Z,1001.40
2017-05-10T08:23:41.692Z,1001.40
2017-05-10T08:24:42.327Z,1001.41
2017-05-10T08:25:42.952Z,1001.41
2017-05-10T08:26:43.633Z,1001.42
2017-05-10T08:27:44.266Z,1001.41
2017-05-10T08:28:44.885Z,1001.40
2017-05-10T08:29:45.512Z,1001.39
2017-05-10T08:30:46.145Z,1001.36
2017-05-10T08:31:46.766Z,1001.36
2017-05-10T08:32:47.396Z,1001.33
2017-05-10T08:33:48.031Z,1001.32
2017-05-10T08:34:48.651Z,1001.29
2017-05-10T08:35:49.302Z,1001.31
2017-05-10T08:36:49.900Z,1001.28
2017-05-10T08:37:50.524Z,1001.28
2017-05-10T08:38:51.139Z,1001.28
2017-05-10T08:39:51.767Z,1001.27
2017-05-10T08:40:52.402Z,1001.29
2017-05-10T08:41:53.069Z,1001.28
2017-05-10T08:42:53.805Z,1001.28
2017-05-10T08:43:54.387Z,1001.24
2017-05-10T08:44:55.002Z,1001.26
2017-05-10T08:45:55.647Z,1001.24
2017-05-10T08:46:56.261Z,1001.23
2017-05-10T08:47:56.891Z,1001.25
2017-05-10T08:48:57.521Z,1001.17
2017-05-10T08:49:58.160Z,1001.18
2017-05-10T08:50:58.790Z,1001.16
2017-05-10T08:51:59.409Z,1001.21
2017-05-10T08:53:00.027Z,1001.17
2017-05-10T08:54:00.656Z,1001.20
2017-05-10T08:55:01.294Z,1001.18
2017-05-10T08:56:01.920Z,1001.19
2017-05-10T08:57:02.595Z,1001.21
2017-05-10T08:58:03.241Z,1001.18
2017-05-10T08:59:03.874Z,1001.15
2017-05-10T09:00:04.528Z,1001.15
2017-05-10T09:01:05.142Z,1001.14
2017-05-10T09:02:05.825Z,1001.17
2017-05-10T09:03:06.460Z,1001.16
2017-05-10T09:04:07.122Z,1001.13
2017-05-10T09:05:07.743Z,1001.18
2017-05-10T09:06:08.370Z,1001.17
2017-05-10T09:07:08.992Z,1001.16
2017-05-10T09:08:09.610Z,1001.16
2017-05-10T09:09:10.242Z,1001.09
2017-05-10T09:10:10.861Z,1001.13
2017-05-10T09:11:11.482Z,1001.09
2017-05-10T09:12:12.102Z,1001.07
2017-05-10T09:13:12.735Z,1001.10
2017-05-10T09:14:13.365Z,1001.06
2017-05-10T09:15:14.003Z,1001.08
2017-05-10T09:16:14.639Z,1001.04
2017-05-10T09:17:15.295Z,1001.06
2017-05-10T09:18:15.906Z,1001.07
2017-05-10T09:19:16.536Z,1001.07
2017-05-10T09:20:17.170Z,1001.03
2017-05-10T09:21:17.801Z,1001.02
2017-05-10T09:22:18.441Z,1001.00
2017-05-10T09:23:19.077Z,1000.98
2017-05-10T09:24:19.715Z,1000.98
2017-05-10T09:25:20.345Z,1001.00
2017-05-10T09:26:20.978Z,1000.96
2017-05-10T09:27:21.621Z,1000.97
2017-05-10T09:28:22.239Z,1000.98
2017-05-10T09:29:22.856Z,1000.97
2017-05-10T09:30:23.495Z,1000.97
2017-05-10T09:31:24.129Z,1001.01
2017-05-10T09:32:24.742Z,1000.98
2017-05-10T09:33:25.375Z,1000.97
2017-05-10T09:34:25.990Z,1000.98
2017-05-10T09:35:26.617Z,1000.95
2017-05-10T09:36:27.296Z,1000.97
2017-05-10T09:37:27.923Z,1000.96
2017-05-10T09:38:28.556Z,1000.98
2017-05-10T09:39:29.187Z,1000.95
2017-05-10T09:40:29.819Z,1000.92
2017-05-10T09:41:30.555Z,1000.94
2017-05-10T09:42:31.195Z,1000.89
2017-05-10T09:43:31.824Z,1000.91
2017-05-10T09:44:32.455Z,1000.93
2017-05-10T09:45:33.073Z,1000.94
2017-05-10T09:46:33.705Z,1000.92
2017-05-10T09:47:34.337Z,1000.94
2017-05-10T09:48:35.168Z,1000.98
2017-05-10T09:49:35.801Z,1000.89
2017-05-10T09:50:36.416Z,1000.96
2017-05-10T09:51:37.082Z,1000.88
2017-05-10T09:52:37.718Z,1000.88
2017-05-10T09:53:38.349Z,1000.88
2017-05-10T09:54:38.977Z,1000.84
2017-05-10T09:55:39.609Z,1000.88
2017-05-10T09:56:40.290Z,1000.82
2017-05-10T09:57:41.122Z,1000.78
2017-05-10T09:58:41.754Z,1000.77
2017-05-10T09:59:42.384Z,1000.76
2017-05-10T10:00:43.020Z,1000.75
2017-05-10T10:01:43.654Z,1000.73
2017-05-10T10:02:44.270Z,1000.73
2017-05-10T10:03:44.888Z,1000.71
2017-05-10T10:04:45.526Z,1000.74
2017-05-10T10:05:46.161Z,1000.69
2017-05-10T10:06:46.796Z,1000.68
2017-05-10T10:07:47.420Z,1000.69
2017-05-10T10:08:48.053Z,1000.66
2017-05-10T10:09:48.683Z,1000.64
2017-05-10T10:10:49.516Z,1000.66
2017-05-10T10:11:50.186Z,1000.66
2017-05-10T10:12:50.806Z,1000.61
2017-05-10T10:13:51.424Z,1000.64
2017-05-10T10:14:52.286Z,1000.56
2017-05-10T10:15:52.920Z,1000.64
2017-05-10T10:16:53.592Z,1000.60
2017-05-10T10:17:54.228Z,1000.60
2017-05-10T10:18:54.851Z,1000.59
2017-05-10T10:19:55.482Z,1000.58
2017-05-10T10:20:56.121Z,1000.56
2017-05-10T10:21:56.752Z,1000.59
2017-05-10T10:22:57.380Z,1000.51
2017-05-10T10:23:58.138Z,1000.47
2017-05-10T10:24:58.776Z,1000.49
2017-05-10T10:25:59.406Z,1000.48
2017-05-10T10:27:00.032Z,1000.46
2017-05-10T10:28:00.657Z,1000.48
2017-05-10T10:29:01.286Z,1000.52
2017-05-10T10:30:01.921Z,1000.50
2017-05-10T10:31:02.553Z,1000.51
2017-05-10T10:32:03.182Z,1000.52
2017-05-10T10:33:04.038Z,1000.55
2017-05-10T10:34:04.659Z,1000.48
2017-05-10T10:35:05.296Z,1000.47
2017-05-10T10:36:05.926Z,1000.44
2017-05-10T10:37:06.640Z,1000.43
2017-05-10T10:38:07.236Z,1000.40
2017-05-10T10:39:07.858Z,1000.37
2017-05-10T10:40:08.486Z,1000.34
2017-05-10T10:41:09.117Z,1000.35
2017-05-10T10:42:09.795Z,1000.32
2017-05-10T10:43:10.435Z,1000.29
2017-05-10T10:44:11.051Z,1000.31
2017-05-10T10:45:11.673Z,1000.29
2017-05-10T10:46:12.307Z,1000.31
2017-05-10T10:47:12.930Z,1000.32
2017-05-10T10:48:13.570Z,1000.26
2017-05-10T10:49:14.191Z,1000.24
2017-05-10T10:50:14.813Z,1000.29
2017-05-10T10:51:15.448Z,1000.23
2017-05-10T10:52:16.082Z,1000.23
2017-05-10T10:53:16.720Z,1000.24
2017-05-10T10:54:17.335Z,1000.21
2017-05-10T10:55:17.953Z,1000.23
2017-05-10T10:56:18.579Z,1000.19
2017-05-10T10:57:19.240Z,1000.19
2017-05-10T10:58:19.842Z,1000.15
2017-05-10T10:59:20.479Z,1000.16
2017-05-10T11:00:21.110Z,1000.15
2017-05-10T11:01:21.737Z,1000.13
2017-05-10T11:02:22.595Z,1000.10
2017-05-10T11:03:23.220Z,1000.14
2017-05-10T11:04:23.857Z,1000.13
2017-05-10T11:05:24.492Z,1000.12
2017-05-10T11:06:25.126Z,1000.12
2017-05-10T11:07:25.749Z,1000.10
2017-05-10T11:08:26.378Z,1000.08
2017-05-10T11:09:27.013Z,1000.06
2017-05-10T11:10:27.659Z,1000.02
2017-05-10T11:11:28.374Z,999.99
2017-05-10T11:12:29.040Z,1000.03
2017-05-10T11:13:29.663Z,1000.00
2017-05-10T11:14:30.319Z,999.96
2017-05-10T11:15:30.962Z,999.95
2017-05-10T11:16:31.626Z,999.94
2017-05-10T11:17:32.278Z,999.92
2017-05-10T11:18:32.882Z,999.95
2017-05-10T11:19:33.517Z,999.89
2017-05-10T11:20:34.352Z,999.94
2017-05-10T11:21:35.040Z,999.92
2017-05-10T11:22:35.672Z,999.93
2017-05-10T11:23:36.308Z,999.93
2017-05-10T11:24:36.941Z,999.93
2017-05-10T11:25:37.584Z,999.93
2017-05-10T11:26:38.212Z,999.92
2017-05-10T11:27:38.900Z,999.87
2017-05-10T11:28:39.527Z,999.87
2017-05-10T11:29:40.152Z,999.84
2017-05-10T11:30:40.765Z,999.86
2017-05-10T11:31:41.448Z,999.82
2017-05-10T11:32:42.066Z,999.82
2017-05-10T11:33:42.697Z,999.84
2017-05-10T11:34:43.312Z,999.82
2017-05-10T11:35:43.942Z,999.80
2017-05-10T11:36:44.621Z,999.80
2017-05-10T11:37:45.247Z,999.81
2017-05-10T11:38:45.885Z,999.78
2017-05-10T11:39:46.520Z,999.75
2017-05-10T11:40:47.141Z,999.76
2017-05-10T11:41:47.767Z,999.68
2017-05-10T11:42:48.396Z,999.65
2017-05-10T11:43:49.025Z,999.70
2017-05-10T11:44:49.657Z,999.62
2017-05-10T11:45:50.296Z,999.65
2017-05-10T11:46:50.915Z,999.64
2017-05-10T11:47:51.553Z,999.60
2017-05-10T11:48:52.213Z,999.61
2017-05-10T11:49:52.836Z,999.60
2017-05-10T11:50:53.464Z,999.59
2017-05-10T11:51:54.139Z,999.56
2017-05-10T11:52:54.759Z,999.54
2017-05-10T11:53:55.378Z,999.52
2017-05-10T11:54:56.014Z,999.50
2017-05-10T11:55:56.643Z,999.52
2017-05-10T11:56:57.311Z,999.53
2017-05-10T11:57:57.939Z,999.53
2017-05-10T11:58:58.575Z,999.49
2017-05-10T11:59:59.204Z,999.49
2017-05-10T12:00:59.841Z,999.51
2017-05-10T12:02:00.465Z,999.50
2017-05-10T12:03:01.083Z,999.52
2017-05-10T12:04:01.721Z,999.48
2017-05-10T12:05:02.345Z,999.50
2017-05-10T12:06:02.963Z,999.44
2017-05-10T12:07:03.657Z,999.43
2017-05-10T12:08:04.262Z,999.45
2017-05-10T12:09:04.888Z,999.38
2017-05-10T12:10:05.521Z,999.38
2017-05-10T12:11:06.144Z,999.38
2017-05-10T12:12:06.834Z,999.39
2017-05-10T12:13:07.460Z,999.39
2017-05-10T12:14:08.094Z,999.33
2017-05-10T12:15:08.723Z,999.34